Maryville, South Carolina
Current Conditions -  °F | °C
As of 3:15 AM on Sunday 21 Dec 2014 (Local Time) from KHYW Reporting Station
Overcast Overcast  
Wind Chill: 41°   Ceiling: 6000
Heat Index: 41°   Visibility: 7mi
Dew Point: 41°   Wind: 3mph
Humidity: 100%   Direction: 10°N
Pressure: 30.23"   Gusts: NA
Location:  33.6042°N, 79.2815°W
Report Text: KHYW 210815Z AUTO 01003KT 7SM OVC060 05/05 A3023 RMK AO2
Loading
Personal Weather Stations






























Interactive Weather Map New forecast layout! Learn more

10-Day Weather Forecast

Advertisements
Track Severe Weather on mobile